Williston, North Dakota
Current Conditions -  °F | °C
As of 1:52 PM on Thursday 23 Oct 2014 (Local Time) from KISN Reporting Station
Clear Clear  
Wind Chill: 59°   Ceiling: Unl
Heat Index: 59°   Visibility: 10mi
Dew Point: 33°   Wind: 12mph
Humidity: 38%   Direction: 210°SSW
Pressure: 29.78"   Gusts: NA
Location:  48.15°N, 103.62°W
Report Text: KISN 231852Z AUTO 21010KT 10SM CLR 15/01 A2978 RMK AO2 SLP093 T01500006
Loading
Personal Weather Stations






























Interactive Weather Map New forecast layout! Learn more

10-Day Weather Forecast

Advertisements
Track Severe Weather on mobile